Time;durP1;ratioP1;P1;durP2;ratioP2;P2;SDS_P1;SDS_P2;PMS_P1;PMS_P2;Temp;Humidity;BMP_temperature;BMP_pressure;BME280_temperature;BME280_humidity;BME280_pressure;Samples;Min_cycle;Max_cycle;Signal;HPM_P1;HPM_P2
2023/09/22 00:00:14;;;;;;;;;;;22.30;75.40;;;;;;5073340;28;19909;-56
2023/09/22 00:02:39;;;;;;;;;;;22.30;75.40;;;;;;5072037;28;20050;-56
2023/09/22 00:05:07;;;;;;;;;;;22.30;75.50;;;;;;5072347;28;20377;-56
2023/09/22 00:07:32;;;;;;;;;;;22.30;75.50;;;;;;5073171;28;19908;-55
2023/09/22 00:09:58;;;;;;;;;;;22.30;75.60;;;;;;5073102;28;19915;-56
2023/09/22 00:12:24;;;;;;;;;;;22.30;75.70;;;;;;5073074;28;19908;-56
2023/09/22 00:14:49;;;;;;;;;;;22.20;75.90;;;;;;5072891;28;19916;-55
2023/09/22 00:17:16;;;;;;;;;;;22.20;76.00;;;;;;5072956;28;19959;-56
2023/09/22 00:19:42;;;;;;;;;;;22.20;76.00;;;;;;5073043;28;19916;-56
2023/09/22 00:22:07;;;;;;;;;;;22.20;76.30;;;;;;5073005;28;19959;-56
2023/09/22 00:24:33;;;;;;;;;;;22.20;76.20;;;;;;5072883;28;19909;-56
2023/09/22 00:26:58;;;;;;;;;;;22.20;76.00;;;;;;5073039;28;19908;-56
2023/09/22 00:29:24;;;;;;;;;;;22.20;76.00;;;;;;5072918;28;19999;-56
2023/09/22 00:31:49;;;;;;;;;;;22.20;76.20;;;;;;5072907;28;19913;-56
2023/09/22 00:34:14;;;;;;;;;;;22.20;76.20;;;;;;5072861;28;19909;-56
2023/09/22 00:36:40;;;;;;;;;;;22.20;76.20;;;;;;5071457;28;20003;-56
2023/09/22 00:39:05;;;;;;;;;;;22.20;76.20;;;;;;5072827;28;19909;-56
2023/09/22 00:41:31;;;;;;;;;;;22.20;76.50;;;;;;5072784;28;19919;-56
2023/09/22 00:43:57;;;;;;;;;;;22.10;76.50;;;;;;5072739;28;19908;-57
2023/09/22 00:46:23;;;;;;;;;;;22.10;76.50;;;;;;5072652;28;19914;-56
2023/09/22 00:48:49;;;;;;;;;;;22.10;76.40;;;;;;5072626;28;19978;-57
2023/09/22 00:51:19;;;;;;;;;;;22.20;76.50;;;;;;5072869;28;19908;-56
2023/09/22 00:53:45;;;;;;;;;;;22.10;76.30;;;;;;5083720;28;19999;-56
2023/09/22 00:56:11;;;;;;;;;;;22.20;76.30;;;;;;5075406;28;20339;-56
2023/09/22 00:58:36;;;;;;;;;;;22.20;76.30;;;;;;5076842;28;20007;-54
2023/09/22 01:01:02;;;;;;;;;;;22.20;76.30;;;;;;5076703;28;19912;-57
2023/09/22 01:03:29;;;;;;;;;;;22.20;76.40;;;;;;5076677;28;20007;-57
2023/09/22 01:05:55;;;;;;;;;;;22.20;76.30;;;;;;5076771;28;20000;-57
2023/09/22 01:08:20;;;;;;;;;;;22.20;76.40;;;;;;5076570;28;19951;-56
2023/09/22 01:10:46;;;;;;;;;;;22.20;76.20;;;;;;5075391;28;19908;-56
2023/09/22 01:13:12;;;;;;;;;;;22.20;76.20;;;;;;5076398;28;20036;-54
2023/09/22 01:15:40;;;;;;;;;;;22.20;76.30;;;;;;5075227;28;19998;-57
2023/09/22 01:18:06;;;;;;;;;;;22.20;76.30;;;;;;5076484;28;20329;-57
2023/09/22 01:20:32;;;;;;;;;;;22.10;76.30;;;;;;5076326;28;19951;-57
2023/09/22 01:22:58;;;;;;;;;;;22.10;76.30;;;;;;5076347;28;19947;-57
2023/09/22 01:25:24;;;;;;;;;;;22.10;76.30;;;;;;5076333;28;19961;-54
2023/09/22 01:27:50;;;;;;;;;;;22.10;76.20;;;;;;5076210;28;19957;-56
2023/09/22 01:30:15;;;;;;;;;;;22.20;76.30;;;;;;5076338;28;19909;-57
2023/09/22 01:32:41;;;;;;;;;;;22.10;76.20;;;;;;5076050;28;19931;-56
2023/09/22 01:35:10;;;;;;;;;;;22.10;76.50;;;;;;5076023;28;19974;-56
2023/09/22 01:37:44;;;;;;;;;;;22.10;76.40;;;;;;5076024;28;19909;-56
2023/09/22 01:40:10;;;;;;;;;;;22.10;76.30;;;;;;5074808;28;19969;-54
2023/09/22 01:42:35;;;;;;;;;;;22.10;76.40;;;;;;5075865;28;19908;-54
2023/09/22 01:45:02;;;;;;;;;;;22.10;76.30;;;;;;5075884;28;19912;-56
2023/09/22 01:47:27;;;;;;;;;;;22.10;76.40;;;;;;5076018;28;19909;-54
2023/09/22 01:49:53;;;;;;;;;;;22.10;76.30;;;;;;5075811;28;20338;-56
2023/09/22 01:52:19;;;;;;;;;;;22.10;76.20;;;;;;5075448;28;19920;-57
2023/09/22 01:54:44;;;;;;;;;;;22.10;76.20;;;;;;5075618;28;19919;-57
2023/09/22 01:57:10;;;;;;;;;;;22.10;76.20;;;;;;5075557;28;19993;-55
2023/09/22 01:59:35;;;;;;;;;;;22.10;76.20;;;;;;5075587;28;19909;-57
2023/09/22 02:02:01;;;;;;;;;;;22.10;76.20;;;;;;5073888;28;20387;-57
2023/09/22 02:04:28;;;;;;;;;;;22.10;76.10;;;;;;5075362;28;20291;-57
2023/09/22 02:06:54;;;;;;;;;;;22.10;76.10;;;;;;5075481;28;19908;-57
2023/09/22 02:09:19;;;;;;;;;;;22.10;76.00;;;;;;5075389;28;19908;-55
2023/09/22 02:11:45;;;;;;;;;;;22.00;75.80;;;;;;5075383;28;19908;-57
2023/09/22 02:14:11;;;;;;;;;;;22.00;75.70;;;;;;5075350;28;19908;-57
2023/09/22 02:16:36;;;;;;;;;;;22.00;75.60;;;;;;5075280;28;19919;-57
2023/09/22 02:19:02;;;;;;;;;;;22.00;75.50;;;;;;5075221;28;19912;-55
2023/09/22 02:21:27;;;;;;;;;;;22.00;75.50;;;;;;5075443;28;20428;-56
2023/09/22 02:23:53;;;;;;;;;;;22.00;75.50;;;;;;5075125;28;19970;-56
2023/09/22 02:26:19;;;;;;;;;;;22.00;75.30;;;;;;5073824;28;19915;-56
2023/09/22 02:28:45;;;;;;;;;;;22.00;75.30;;;;;;5073761;28;19916;-56
2023/09/22 02:31:11;;;;;;;;;;;22.00;75.10;;;;;;5075096;28;19932;-53
2023/09/22 02:33:36;;;;;;;;;;;22.00;75.10;;;;;;5075036;28;20270;-54
2023/09/22 02:36:04;;;;;;;;;;;22.00;75.00;;;;;;5073547;28;19954;-56
2023/09/22 02:38:30;;;;;;;;;;;22.00;74.80;;;;;;5074864;28;19908;-55
2023/09/22 02:40:55;;;;;;;;;;;22.00;74.70;;;;;;5074929;28;20293;-55
2023/09/22 02:43:21;;;;;;;;;;;22.00;74.70;;;;;;5074792;28;19909;-55
2023/09/22 02:45:46;;;;;;;;;;;22.00;74.60;;;;;;5074721;28;19913;-55
2023/09/22 02:48:11;;;;;;;;;;;22.00;74.70;;;;;;5074846;28;19923;-55
2023/09/22 02:50:37;;;;;;;;;;;22.00;74.60;;;;;;5074673;28;19916;-55
2023/09/22 02:53:04;;;;;;;;;;;21.90;74.50;;;;;;5074267;28;20261;-56
2023/09/22 02:55:34;;;;;;;;;;;22.00;74.50;;;;;;5074190;28;19913;-54
2023/09/22 02:57:59;;;;;;;;;;;21.90;74.30;;;;;;5074568;28;20015;-55
2023/09/22 03:00:26;;;;;;;;;;;21.90;74.20;;;;;;5074192;28;19955;-54
2023/09/22 03:02:53;;;;;;;;;;;21.90;74.20;;;;;;5074136;28;19909;-55
2023/09/22 03:05:18;;;;;;;;;;;21.90;74.00;;;;;;5074260;28;19976;-53
2023/09/22 03:07:43;;;;;;;;;;;22.00;74.10;;;;;;5074439;28;19909;-54
2023/09/22 03:10:10;;;;;;;;;;;21.90;73.90;;;;;;5074206;28;20427;-55
2023/09/22 03:12:36;;;;;;;;;;;21.90;74.00;;;;;;5074283;28;19908;-55
2023/09/22 03:15:03;;;;;;;;;;;21.90;73.90;;;;;;5073215;28;19923;-54
2023/09/22 03:17:28;;;;;;;;;;;21.90;73.80;;;;;;5074159;28;19915;-54
2023/09/22 03:19:54;;;;;;;;;;;21.90;73.80;;;;;;5072793;28;19912;-55
2023/09/22 03:22:20;;;;;;;;;;;21.90;73.70;;;;;;5074107;28;19958;-55
2023/09/22 03:24:46;;;;;;;;;;;21.90;73.70;;;;;;5073989;28;19916;-55
2023/09/22 03:27:11;;;;;;;;;;;21.80;73.50;;;;;;5073892;28;19913;-55
2023/09/22 03:29:37;;;;;;;;;;;21.80;73.50;;;;;;5074101;28;19944;-54
2023/09/22 03:32:03;;;;;;;;;;;21.80;73.50;;;;;;5073954;28;19958;-55
2023/09/22 03:34:28;;;;;;;;;;;21.80;73.40;;;;;;5073834;28;19973;-55
2023/09/22 03:36:53;;;;;;;;;;;21.90;73.50;;;;;;5073891;28;20297;-55
2023/09/22 03:39:21;;;;;;;;;;;21.80;73.40;;;;;;5073682;28;20401;-54
2023/09/22 03:41:52;;;;;;;;;;;21.80;73.30;;;;;;5073773;28;19984;-54
2023/09/22 03:44:17;;;;;;;;;;;21.80;73.30;;;;;;5073799;28;19908;-54
2023/09/22 03:46:43;;;;;;;;;;;21.80;73.20;;;;;;5073604;28;19915;-55
2023/09/22 03:49:09;;;;;;;;;;;21.80;73.10;;;;;;5073449;28;19908;-54
2023/09/22 03:51:34;;;;;;;;;;;21.80;73.10;;;;;;5073322;28;19920;-55
2023/09/22 03:54:00;;;;;;;;;;;21.80;73.00;;;;;;5073561;28;19958;-55
2023/09/22 03:56:25;;;;;;;;;;;21.80;72.90;;;;;;5073474;28;19923;-55
2023/09/22 03:58:51;;;;;;;;;;;21.80;72.90;;;;;;5073729;28;19915;-54
2023/09/22 04:01:16;;;;;;;;;;;21.80;72.80;;;;;;5073374;28;19916;-54
2023/09/22 04:03:41;;;;;;;;;;;21.80;72.70;;;;;;5073310;28;19963;-55
2023/09/22 04:06:07;;;;;;;;;;;21.80;72.70;;;;;;5073356;28;19909;-54
2023/09/22 04:08:32;;;;;;;;;;;21.80;72.70;;;;;;5073360;28;19915;-55
2023/09/22 04:10:58;;;;;;;;;;;21.80;72.60;;;;;;5073278;28;19951;-55
2023/09/22 04:13:27;;;;;;;;;;;21.80;72.60;;;;;;5073030;28;19908;-56
2023/09/22 04:16:01;;;;;;;;;;;21.80;72.60;;;;;;5073029;28;20007;-55
2023/09/22 04:18:29;;;;;;;;;;;21.80;72.60;;;;;;5073029;28;20269;-55
2023/09/22 04:20:58;;;;;;;;;;;21.80;72.70;;;;;;5073066;28;19916;-55
2023/09/22 04:23:25;;;;;;;;;;;21.80;72.70;;;;;;5073070;28;19909;-55
2023/09/22 04:25:54;;;;;;;;;;;21.80;72.70;;;;;;5072721;28;19909;-55
2023/09/22 04:28:25;;;;;;;;;;;21.80;72.70;;;;;;5072959;28;19943;-55
2023/09/22 04:30:50;;;;;;;;;;;21.80;72.80;;;;;;5073096;28;20429;-54
2023/09/22 04:33:17;;;;;;;;;;;21.80;72.90;;;;;;5072837;28;19959;-55
2023/09/22 04:35:43;;;;;;;;;;;21.80;72.90;;;;;;5072931;28;19931;-55
2023/09/22 04:38:11;;;;;;;;;;;21.80;72.90;;;;;;5071479;28;19908;-55
2023/09/22 04:40:38;;;;;;;;;;;21.80;72.80;;;;;;5072943;28;19909;-54
2023/09/22 04:43:06;;;;;;;;;;;21.80;72.80;;;;;;5073177;28;19950;-55
2023/09/22 04:45:36;;;;;;;;;;;21.80;72.90;;;;;;5072833;28;20012;-54
2023/09/22 04:48:04;;;;;;;;;;;21.80;72.90;;;;;;5072907;28;19915;-55
2023/09/22 04:50:31;;;;;;;;;;;21.80;73.00;;;;;;5073078;28;19915;-55
2023/09/22 04:52:56;;;;;;;;;;;21.80;73.00;;;;;;5072697;28;19920;-54
2023/09/22 04:55:22;;;;;;;;;;;21.80;73.00;;;;;;5072898;28;19922;-54
2023/09/22 04:57:48;;;;;;;;;;;21.80;73.00;;;;;;5072745;28;19908;-54
2023/09/22 05:00:24;;;;;;;;;;;21.70;72.90;;;;;;5072173;28;21305;-54
2023/09/22 05:02:52;;;;;;;;;;;21.70;72.90;;;;;;5072841;28;19908;-55
2023/09/22 05:05:19;;;;;;;;;;;21.70;72.90;;;;;;5072574;28;19967;-55
2023/09/22 05:07:45;;;;;;;;;;;21.70;72.90;;;;;;5072643;28;19912;-55
2023/09/22 05:10:11;;;;;;;;;;;21.70;72.90;;;;;;5072511;28;20249;-55
2023/09/22 05:12:36;;;;;;;;;;;21.70;72.90;;;;;;5072640;28;19973;-54
2023/09/22 05:15:02;;;;;;;;;;;21.70;72.90;;;;;;5072367;28;20257;-55
2023/09/22 05:17:28;;;;;;;;;;;21.70;72.90;;;;;;5072458;28;19966;-54
2023/09/22 05:19:53;;;;;;;;;;;21.70;72.80;;;;;;5072578;28;19953;-55
2023/09/22 05:22:20;;;;;;;;;;;21.70;72.80;;;;;;5072442;28;19909;-55
2023/09/22 05:24:46;;;;;;;;;;;21.70;72.90;;;;;;5072445;28;20011;-54
2023/09/22 05:27:11;;;;;;;;;;;21.70;72.80;;;;;;5072382;28;19952;-54
2023/09/22 05:29:37;;;;;;;;;;;21.70;72.70;;;;;;5071405;28;19909;-54
2023/09/22 05:32:03;;;;;;;;;;;21.70;72.60;;;;;;5072426;28;19935;-54
2023/09/22 05:34:28;;;;;;;;;;;21.70;72.60;;;;;;5072672;28;19920;-54
2023/09/22 05:36:54;;;;;;;;;;;21.70;72.60;;;;;;5072278;28;19913;-54
2023/09/22 05:39:19;;;;;;;;;;;21.70;72.60;;;;;;5075667;28;20433;-55
2023/09/22 05:41:47;;;;;;;;;;;21.70;72.60;;;;;;5075977;28;20280;-55
2023/09/22 05:44:13;;;;;;;;;;;21.70;72.60;;;;;;5075930;28;19909;-54
2023/09/22 05:46:38;;;;;;;;;;;21.70;72.50;;;;;;5075880;28;20284;-54
2023/09/22 05:49:05;;;;;;;;;;;21.70;72.50;;;;;;5075772;28;19908;-55
2023/09/22 05:51:32;;;;;;;;;;;21.70;72.40;;;;;;5074361;28;20376;-55
2023/09/22 05:53:57;;;;;;;;;;;21.70;72.40;;;;;;5075690;28;20426;-54
2023/09/22 05:56:22;;;;;;;;;;;21.70;72.40;;;;;;5075502;28;19912;-54
2023/09/22 05:58:48;;;;;;;;;;;21.70;72.40;;;;;;5057636;28;19908;-55
2023/09/22 06:01:14;;;;;;;;;;;21.70;72.40;;;;;;5075751;28;19931;-55
2023/09/22 06:03:40;;;;;;;;;;;21.70;72.30;;;;;;5075539;28;20356;-54
2023/09/22 06:06:06;;;;;;;;;;;21.70;72.30;;;;;;5075653;28;19908;-54
2023/09/22 06:08:31;;;;;;;;;;;21.70;72.30;;;;;;5075454;28;20380;-54
2023/09/22 06:10:59;;;;;;;;;;;21.70;72.20;;;;;;5075435;28;19909;-54
2023/09/22 06:13:24;;;;;;;;;;;21.70;72.20;;;;;;5075197;28;19909;-55
2023/09/22 06:15:51;;;;;;;;;;;21.70;72.20;;;;;;5075225;28;20253;-54
2023/09/22 06:18:18;;;;;;;;;;;21.70;72.90;;;;;;5075316;28;19909;-54
2023/09/22 06:20:44;;;;;;;;;;;21.60;72.00;;;;;;5075212;28;19913;-54
2023/09/22 06:23:10;;;;;;;;;;;21.60;72.00;;;;;;5075447;28;19908;-55
2023/09/22 06:25:35;;;;;;;;;;;21.60;72.00;;;;;;5075238;28;20027;-55
2023/09/22 06:28:01;;;;;;;;;;;21.60;72.10;;;;;;5075069;28;19908;-55
2023/09/22 06:30:26;;;;;;;;;;;21.60;72.80;;;;;;5075002;28;19916;-55
2023/09/22 06:32:52;;;;;;;;;;;21.60;72.00;;;;;;5075127;28;19912;-55
2023/09/22 06:35:17;;;;;;;;;;;21.60;72.00;;;;;;5074894;28;19927;-54
2023/09/22 06:37:43;;;;;;;;;;;21.50;71.90;;;;;;5075007;28;19908;-54
2023/09/22 06:40:12;;;;;;;;;;;21.50;72.00;;;;;;5075248;28;19912;-53
2023/09/22 06:42:40;;;;;;;;;;;21.50;71.80;;;;;;5073436;28;19908;-55
2023/09/22 06:45:06;;;;;;;;;;;21.50;72.00;;;;;;5074792;28;19909;-55
2023/09/22 06:47:34;;;;;;;;;;;21.50;71.90;;;;;;5074664;28;19908;-55
2023/09/22 06:50:02;;;;;;;;;;;21.40;71.80;;;;;;5074921;28;19946;-55
2023/09/22 06:52:27;;;;;;;;;;;21.40;71.90;;;;;;5074502;28;20376;-55
2023/09/22 06:54:53;;;;;;;;;;;21.40;71.90;;;;;;5074504;28;20008;-55
2023/09/22 06:57:18;;;;;;;;;;;21.30;71.80;;;;;;5074588;28;19909;-55
2023/09/22 06:59:44;;;;;;;;;;;21.30;71.80;;;;;;5074456;28;20368;-55
2023/09/22 07:02:09;;;;;;;;;;;21.30;71.60;;;;;;5074493;28;19998;-55
2023/09/22 07:04:35;;;;;;;;;;;21.40;71.60;;;;;;5074589;28;19909;-54
2023/09/22 07:07:02;;;;;;;;;;;21.40;71.50;;;;;;5074340;28;19908;-54
2023/09/22 07:09:27;;;;;;;;;;;21.40;71.40;;;;;;5074219;28;20360;-55
2023/09/22 07:11:53;;;;;;;;;;;21.40;71.30;;;;;;5073021;28;19930;-54
2023/09/22 07:14:18;;;;;;;;;;;21.40;71.30;;;;;;5074082;28;19909;-55
2023/09/22 07:16:44;;;;;;;;;;;21.40;71.20;;;;;;5074049;28;19958;-55
2023/09/22 07:19:10;;;;;;;;;;;21.30;71.10;;;;;;5074110;28;19920;-55
2023/09/22 07:21:35;;;;;;;;;;;21.30;71.20;;;;;;5073919;28;20400;-55
2023/09/22 07:24:01;;;;;;;;;;;21.30;71.10;;;;;;5073853;28;20349;-55
2023/09/22 07:26:26;;;;;;;;;;;21.40;71.00;;;;;;5073877;28;19962;-55
2023/09/22 07:28:52;;;;;;;;;;;21.20;70.90;;;;;;5074146;28;19912;-54
2023/09/22 07:31:20;;;;;;;;;;;21.30;70.80;;;;;;5073727;28;19908;-54
2023/09/22 07:33:46;;;;;;;;;;;21.30;70.70;;;;;;5073961;28;20007;-54
2023/09/22 07:36:11;;;;;;;;;;;21.30;70.70;;;;;;5072345;28;20003;-55
2023/09/22 07:38:37;;;;;;;;;;;21.30;70.50;;;;;;5073601;28;20288;-55
2023/09/22 07:41:02;;;;;;;;;;;21.30;70.40;;;;;;5072434;28;20316;-54
2023/09/22 07:43:29;;;;;;;;;;;21.20;70.30;;;;;;5073546;28;19935;-55
2023/09/22 07:45:55;;;;;;;;;;;21.30;70.30;;;;;;5073615;28;19908;-54
2023/09/22 07:48:21;;;;;;;;;;;21.20;70.10;;;;;;5073571;28;20001;-55
2023/09/22 07:50:46;;;;;;;;;;;21.20;70.80;;;;;;5073456;28;19951;-54
2023/09/22 07:53:12;;;;;;;;;;;21.20;69.90;;;;;;5073227;28;19920;-55
2023/09/22 07:55:38;;;;;;;;;;;21.30;70.00;;;;;;5072078;28;20430;-55
2023/09/22 07:58:04;;;;;;;;;;;21.30;69.90;;;;;;5072089;28;19908;-55
2023/09/22 08:00:29;;;;;;;;;;;21.30;69.80;;;;;;5072822;28;20018;-55
2023/09/22 08:02:54;;;;;;;;;;;21.30;69.60;;;;;;5073277;28;19912;-55
2023/09/22 08:05:20;;;;;;;;;;;21.30;69.60;;;;;;5073259;28;19909;-54
2023/09/22 08:07:46;;;;;;;;;;;21.30;69.60;;;;;;5073193;28;20388;-55
2023/09/22 08:10:12;;;;;;;;;;;21.30;69.60;;;;;;5073109;28;19909;-54
2023/09/22 08:12:37;;;;;;;;;;;21.30;69.40;;;;;;5071918;28;19908;-55
2023/09/22 08:15:03;;;;;;;;;;;21.30;69.40;;;;;;5072990;28;19923;-55
2023/09/22 08:17:29;;;;;;;;;;;21.30;70.10;;;;;;5073242;28;20029;-55
2023/09/22 08:19:54;;;;;;;;;;;21.40;69.40;;;;;;5072997;28;19908;-55
2023/09/22 08:22:20;;;;;;;;;;;21.40;69.30;;;;;;5073322;28;19908;-55
2023/09/22 08:24:46;;;;;;;;;;;21.40;69.20;;;;;;5071672;28;19908;-55
2023/09/22 08:27:12;;;;;;;;;;;21.30;69.10;;;;;;5072933;28;19921;-55
2023/09/22 08:29:37;;;;;;;;;;;21.40;69.20;;;;;;5073011;28;20005;-54
2023/09/22 08:32:04;;;;;;;;;;;21.40;69.10;;;;;;5072880;28;19992;-54
2023/09/22 08:34:33;;;;;;;;;;;21.30;68.90;;;;;;5072798;28;19908;-54
2023/09/22 08:36:59;;;;;;;;;;;21.30;69.00;;;;;;5072870;28;19918;-55
2023/09/22 08:39:25;;;;;;;;;;;21.30;68.90;;;;;;5072667;28;19908;-55
2023/09/22 08:41:50;;;;;;;;;;;21.40;68.80;;;;;;5072846;28;19915;-55
2023/09/22 08:44:16;;;;;;;;;;;21.40;68.80;;;;;;5072685;28;19908;-55
2023/09/22 08:46:42;;;;;;;;;;;21.40;68.70;;;;;;5072837;28;20372;-55
2023/09/22 08:49:07;;;;;;;;;;;21.30;68.50;;;;;;5072713;28;20382;-55
2023/09/22 08:51:33;;;;;;;;;;;21.30;68.80;;;;;;5072440;28;19917;-55
2023/09/22 08:53:58;;;;;;;;;;;21.30;68.50;;;;;;5072757;28;19908;-55
2023/09/22 08:56:24;;;;;;;;;;;21.30;68.30;;;;;;5072454;28;19955;-56
2023/09/22 08:58:51;;;;;;;;;;;21.40;68.50;;;;;;5072734;28;19908;-54
2023/09/22 09:01:16;;;;;;;;;;;21.30;68.20;;;;;;5072559;28;19909;-55
2023/09/22 09:03:42;;;;;;;;;;;21.30;68.50;;;;;;5088234;28;20015;-55
2023/09/22 09:06:08;;;;;;;;;;;21.30;68.30;;;;;;5072470;28;19955;-55
2023/09/22 09:08:36;;;;;;;;;;;21.30;68.10;;;;;;5072507;28;19909;-54
2023/09/22 09:11:08;;;;;;;;;;;21.30;67.90;;;;;;5072555;28;20372;-54
2023/09/22 09:13:34;;;;;;;;;;;21.30;67.90;;;;;;5073560;28;19915;-54
2023/09/22 09:16:06;;;;;;;;;;;21.30;67.90;;;;;;5076433;28;20384;-55
2023/09/22 09:18:32;;;;;;;;;;;21.30;67.80;;;;;;5076239;28;19916;-54
2023/09/22 09:21:24;;;;;;;;;;;21.30;67.80;;;;;;5076421;28;19909;-55
2023/09/22 09:23:53;;;;;;;;;;;21.30;67.80;;;;;;5073374;28;19909;-55
2023/09/22 09:26:33;;;;;;;;;;;21.40;67.70;;;;;;5076390;28;19954;-55
2023/09/22 09:28:59;;;;;;;;;;;21.30;67.60;;;;;;5076728;28;19920;-54
2023/09/22 09:31:43;;;;;;;;;;;21.30;67.40;;;;;;5074806;28;20253;-54
2023/09/22 09:34:09;;;;;;;;;;;21.30;67.30;;;;;;5076117;28;19969;-55
2023/09/22 09:36:34;;;;;;;;;;;21.30;67.20;;;;;;5076211;28;19920;-55
2023/09/22 09:38:59;;;;;;;;;;;21.30;67.00;;;;;;5076069;28;19909;-55
2023/09/22 09:41:25;;;;;;;;;;;21.30;67.00;;;;;;5075969;28;19915;-54
2023/09/22 09:43:51;;;;;;;;;;;21.30;66.90;;;;;;5076333;28;19909;-55
2023/09/22 09:46:16;;;;;;;;;;;21.30;67.00;;;;;;5074683;28;19999;-55
2023/09/22 09:48:42;;;;;;;;;;;21.30;66.70;;;;;;5076108;28;19909;-54
2023/09/22 09:51:11;;;;;;;;;;;21.30;66.70;;;;;;5075756;28;20287;-55
2023/09/22 09:53:37;;;;;;;;;;;21.30;66.30;;;;;;5074403;28;20449;-55
2023/09/22 09:56:03;;;;;;;;;;;21.30;66.40;;;;;;5075643;28;19917;-55
2023/09/22 09:58:30;;;;;;;;;;;21.20;66.00;;;;;;5075515;28;19992;-54
2023/09/22 10:01:00;;;;;;;;;;;21.20;66.10;;;;;;5075562;28;20042;-54
2023/09/22 10:03:26;;;;;;;;;;;21.20;65.70;;;;;;5075347;28;19934;-55
2023/09/22 10:05:52;;;;;;;;;;;21.20;65.70;;;;;;5075541;28;20312;-55
2023/09/22 10:08:20;;;;;;;;;;;21.20;66.30;;;;;;5075440;28;19909;-55
2023/09/22 10:10:47;;;;;;;;;;;21.30;65.50;;;;;;5075622;28;20364;-53
2023/09/22 10:13:13;;;;;;;;;;;21.30;65.30;;;;;;5074141;28;19912;-53
2023/09/22 10:16:08;;;;;;;;;;;21.30;65.40;;;;;;5075283;28;20292;-55
2023/09/22 10:18:49;;;;;;;;;;;21.30;65.20;;;;;;5062062;28;19912;-54
2023/09/22 10:21:30;;;;;;;;;;;21.20;65.00;;;;;;5075015;28;19916;-55
2023/09/22 10:24:14;;;;;;;;;;;21.20;64.80;;;;;;5074807;28;19908;-55
2023/09/22 10:27:03;;;;;;;;;;;21.30;64.70;;;;;;5075059;28;19909;-55
2023/09/22 10:29:35;;;;;;;;;;;21.30;64.60;;;;;;5075237;28;20288;-55
2023/09/22 10:32:18;;;;;;;;;;;21.30;64.50;;;;;;5075262;28;20355;-55
2023/09/22 10:34:57;;;;;;;;;;;21.30;64.50;;;;;;5075120;28;19909;-55
2023/09/22 10:37:23;;;;;;;;;;;21.30;64.50;;;;;;5075050;28;20428;-54
2023/09/22 10:39:52;;;;;;;;;;;21.30;64.30;;;;;;5075000;28;19948;-55
2023/09/22 10:42:18;;;;;;;;;;;21.30;64.20;;;;;;5075028;28;19935;-55
2023/09/22 10:44:58;;;;;;;;;;;21.30;64.30;;;;;;5074945;28;19913;-55
2023/09/22 10:47:27;;;;;;;;;;;21.30;64.40;;;;;;5074810;28;19909;-55
2023/09/22 10:49:52;;;;;;;;;;;21.30;64.20;;;;;;5074714;28;19909;-55
2023/09/22 10:52:18;;;;;;;;;;;21.30;64.30;;;;;;5074499;28;20399;-54
2023/09/22 10:54:47;;;;;;;;;;;21.30;64.50;;;;;;5074639;28;20399;-55
2023/09/22 10:57:24;;;;;;;;;;;21.30;64.20;;;;;;5074783;28;19927;-54
2023/09/22 10:59:50;;;;;;;;;;;21.40;64.10;;;;;;5074551;28;19908;-55
2023/09/22 11:02:25;;;;;;;;;;;21.40;64.10;;;;;;5074465;28;19947;-55
2023/09/22 11:04:50;;;;;;;;;;;21.40;64.10;;;;;;5074556;28;20336;-54
2023/09/22 11:07:32;;;;;;;;;;;21.40;64.10;;;;;;5074425;28;20035;-54
2023/09/22 11:09:57;;;;;;;;;;;21.50;64.20;;;;;;5074467;28;19936;-54
2023/09/22 11:12:23;;;;;;;;;;;21.50;63.90;;;;;;5074583;28;19912;-54
2023/09/22 11:14:49;;;;;;;;;;;21.50;64.10;;;;;;5074116;28;19909;-55
2023/09/22 11:17:14;;;;;;;;;;;21.40;63.80;;;;;;5074335;28;20252;-55
2023/09/22 11:19:49;;;;;;;;;;;21.40;63.70;;;;;;5074134;28;20025;-55
2023/09/22 11:22:16;;;;;;;;;;;21.40;63.60;;;;;;5074032;28;20377;-54
2023/09/22 11:24:42;;;;;;;;;;;21.40;63.50;;;;;;5072743;28;20282;-55
2023/09/22 11:27:10;;;;;;;;;;;21.40;63.70;;;;;;5073990;28;20002;-55
2023/09/22 11:29:35;;;;;;;;;;;21.40;63.50;;;;;;5072755;28;20264;-55
2023/09/22 11:32:03;;;;;;;;;;;21.40;63.40;;;;;;5073721;28;19908;-54
2023/09/22 11:34:28;;;;;;;;;;;21.40;63.60;;;;;;5073779;28;19909;-55
2023/09/22 11:36:55;;;;;;;;;;;21.40;63.40;;;;;;5073187;28;20011;-55
2023/09/22 11:39:27;;;;;;;;;;;21.50;63.30;;;;;;5073818;28;19909;-55
2023/09/22 11:41:53;;;;;;;;;;;21.50;62.90;;;;;;5089575;28;20395;-54
2023/09/22 11:44:18;;;;;;;;;;;21.50;62.30;;;;;;5089619;28;19920;-55
2023/09/22 11:46:47;;;;;;;;;;;21.50;62.20;;;;;;5073780;28;19909;-55
2023/09/22 11:49:13;;;;;;;;;;;21.50;61.70;;;;;;5073801;28;19957;-56
2023/09/22 11:51:42;;;;;;;;;;;21.50;62.00;;;;;;5073519;28;19925;-55
2023/09/22 11:54:08;;;;;;;;;;;21.50;61.70;;;;;;5073617;28;20016;-54
2023/09/22 11:56:33;;;;;;;;;;;21.50;61.80;;;;;;5088828;28;20003;-55
2023/09/22 11:59:08;;;;;;;;;;;21.50;61.80;;;;;;5073525;28;20228;-57
2023/09/22 12:01:33;;;;;;;;;;;21.50;61.90;;;;;;5073607;28;19913;-55
2023/09/22 12:03:59;;;;;;;;;;;21.50;61.70;;;;;;5073624;28;19908;-55
2023/09/22 12:06:25;;;;;;;;;;;21.50;61.90;;;;;;5073416;28;19908;-55
2023/09/22 12:08:51;;;;;;;;;;;21.50;61.50;;;;;;5071912;28;19912;-55
2023/09/22 12:11:16;;;;;;;;;;;21.50;61.70;;;;;;5072089;28;20318;-55
2023/09/22 12:13:43;;;;;;;;;;;21.50;61.70;;;;;;5073340;28;19916;-54
2023/09/22 12:16:08;;;;;;;;;;;21.60;61.70;;;;;;5071741;28;19912;-54
2023/09/22 12:18:34;;;;;;;;;;;21.50;61.50;;;;;;5073413;28;19974;-55
2023/09/22 12:20:59;;;;;;;;;;;21.50;61.40;;;;;;5073191;28;19908;-55
2023/09/22 12:23:25;;;;;;;;;;;21.50;61.50;;;;;;5073037;28;19959;-54
2023/09/22 12:25:52;;;;;;;;;;;21.50;61.50;;;;;;5073241;28;19908;-55
2023/09/22 12:28:20;;;;;;;;;;;21.50;61.50;;;;;;5073023;28;19913;-55
2023/09/22 12:30:46;;;;;;;;;;;21.50;61.50;;;;;;5072959;28;20377;-55
2023/09/22 12:33:12;;;;;;;;;;;21.50;61.40;;;;;;5072895;28;19909;-55
2023/09/22 12:35:38;;;;;;;;;;;21.50;61.30;;;;;;5072918;28;19920;-55
2023/09/22 12:38:04;;;;;;;;;;;21.60;61.40;;;;;;5072715;28;19919;-55
2023/09/22 12:40:30;;;;;;;;;;;21.60;61.40;;;;;;5072746;28;19908;-55
2023/09/22 12:42:55;;;;;;;;;;;21.60;61.30;;;;;;5072690;28;19915;-55
2023/09/22 12:45:22;;;;;;;;;;;21.50;61.30;;;;;;5072862;28;19909;-55
2023/09/22 12:47:47;;;;;;;;;;;21.50;61.30;;;;;;5072673;28;19958;-55
2023/09/22 12:50:13;;;;;;;;;;;21.60;61.40;;;;;;5072574;28;19917;-55
2023/09/22 12:52:38;;;;;;;;;;;21.50;61.40;;;;;;5072668;28;20385;-55
2023/09/22 12:55:09;;;;;;;;;;;21.60;61.30;;;;;;5072719;28;19909;-55
2023/09/22 12:57:36;;;;;;;;;;;21.60;61.40;;;;;;5072688;28;20020;-55
2023/09/22 13:00:03;;;;;;;;;;;21.60;61.30;;;;;;5071515;28;19939;-55
2023/09/22 13:02:29;;;;;;;;;;;21.60;61.10;;;;;;5072642;28;19915;-55
2023/09/22 13:04:56;;;;;;;;;;;21.60;60.90;;;;;;5072919;28;19909;-55
2023/09/22 13:07:21;;;;;;;;;;;21.60;60.80;;;;;;5072550;28;20278;-55
2023/09/22 13:09:47;;;;;;;;;;;21.60;60.70;;;;;;5072602;28;20446;-55
2023/09/22 13:12:12;;;;;;;;;;;21.60;60.50;;;;;;5072593;28;19919;-55
2023/09/22 13:14:39;;;;;;;;;;;21.60;60.80;;;;;;5072556;28;19954;-55
2023/09/22 13:17:04;;;;;;;;;;;21.60;60.10;;;;;;5072632;28;19912;-55
2023/09/22 13:19:33;;;;;;;;;;;21.70;59.60;;;;;;5071370;28;20421;-55
2023/09/22 13:21:59;;;;;;;;;;;21.70;58.80;;;;;;5072532;28;19908;-55
2023/09/22 13:24:25;;;;;;;;;;;21.70;59.60;;;;;;5072309;28;20365;-54
2023/09/22 13:26:50;;;;;;;;;;;21.70;59.40;;;;;;5071303;28;19962;-55
2023/09/22 13:29:17;;;;;;;;;;;21.70;58.50;;;;;;5071044;28;19908;-55
2023/09/22 13:31:42;;;;;;;;;;;21.70;59.50;;;;;;5072450;28;19991;-54
2023/09/22 13:34:08;;;;;;;;;;;21.70;59.80;;;;;;5072360;28;19948;-55
2023/09/22 13:36:33;;;;;;;;;;;21.70;59.40;;;;;;5072134;28;19923;-55
2023/09/22 13:38:59;;;;;;;;;;;21.70;59.40;;;;;;5072178;28;19916;-55
2023/09/22 13:41:24;;;;;;;;;;;21.70;59.70;;;;;;5072152;28;19995;-54
2023/09/22 13:43:50;;;;;;;;;;;21.70;59.40;;;;;;5072188;28;19908;-55
2023/09/22 13:46:16;;;;;;;;;;;21.70;59.40;;;;;;5072012;28;19916;-55
2023/09/22 13:48:41;;;;;;;;;;;21.70;59.20;;;;;;5072159;28;20369;-55
2023/09/22 13:51:08;;;;;;;;;;;21.70;59.50;;;;;;5072210;28;20007;-54
2023/09/22 13:53:40;;;;;;;;;;;21.70;58.90;;;;;;5072071;28;20057;-55
2023/09/22 13:56:16;;;;;;;;;;;21.70;59.30;;;;;;5072021;28;20386;-54
2023/09/22 13:58:41;;;;;;;;;;;21.70;59.20;;;;;;5073071;28;19984;-54
2023/09/22 14:01:11;;;;;;;;;;;21.70;59.30;;;;;;5075788;28;20318;-55
2023/09/22 14:03:36;;;;;;;;;;;21.70;59.20;;;;;;5075721;28;19908;-55
2023/09/22 14:06:01;;;;;;;;;;;21.80;59.50;;;;;;5074423;28;20426;-55
2023/09/22 14:08:27;;;;;;;;;;;21.80;59.20;;;;;;5075484;28;19930;-55
2023/09/22 14:10:54;;;;;;;;;;;21.80;59.30;;;;;;5074287;28;19912;-55
2023/09/22 14:13:20;;;;;;;;;;;21.80;59.40;;;;;;5074108;28;19957;-54